Observation data for Abernathy on 01/10/2018      Previous  Date  Next       Current Mesonet Observations  Soil Data  Daily Summary Page  Observations in Plain Language
KARS 100600Z 22009KT 10/M00 A2986 RMK A01 T01031001  RH  049%=      5-min Rain = 0
KARS 100605Z 21010KT 10/M00 A2986 RMK A01 T01031001  RH  049%=      5-min Rain = 0
KARS 100610Z 21010KT 10/M00 A2985 RMK A01 T01021001  RH  049%=      5-min Rain = 0
KARS 100615Z 21009KT 10/M00 A2985 RMK A01 T00981002  RH  050%=      5-min Rain = 0
KARS 100620Z 22008KT 09/M00 A2985 RMK A01 T00931003  RH  052%=      5-min Rain = 0
KARS 100625Z 22009KT 09/M00 A2985 RMK A01 T00881003  RH  053%=      5-min Rain = 0
KARS 100630Z 22010KT 09/M00 A2985 RMK A01 T00861003  RH  054%=      5-min Rain = 0
KARS 100635Z 22009KT 09/M00 A2984 RMK A01 T00851003  RH  054%=      5-min Rain = 0
KARS 100640Z 22009KT 08/M00 A2984 RMK A01 T00841003  RH  055%=      5-min Rain = 0
KARS 100645Z 22009KT 08/M00 A2984 RMK A01 T00841003  RH  055%=      5-min Rain = 0
KARS 100650Z 22009KT 08/M00 A2984 RMK A01 T00801004  RH  056%=      5-min Rain = 0
KARS 100655Z 21009KT 08/M00 A2984 RMK A01 T00781004  RH  057%=      5-min Rain = 0
KARS 100700Z 22009KT 08/M00 A2984 RMK A01 T00771004  RH  057%=      5-min Rain = 0
KARS 100705Z 22009KT 08/M00 A2984 RMK A01 T00791003  RH  057%=      5-min Rain = 0
KARS 100710Z 22009KT 08/M00 A2984 RMK A01 T00801002  RH  057%=      5-min Rain = 0
KARS 100715Z 21010KT 08/M00 A2983 RMK A01 T00811001  RH  057%=      5-min Rain = 0
KARS 100720Z 21009KT 08/M00 A2983 RMK A01 T00821001  RH  057%=      5-min Rain = 0
KARS 100725Z 21010KT 08/00 A2983 RMK A01 T00830001  RH  057%=      5-min Rain = 0
KARS 100730Z 22010KT 09/00 A2983 RMK A01 T00860001  RH  056%=      5-min Rain = 0
KARS 100735Z 22010KT 09/00 A2982 RMK A01 T00880002  RH  055%=      5-min Rain = 0
KARS 100740Z 22010KT 09/00 A2982 RMK A01 T00880002  RH  055%=      5-min Rain = 0
KARS 100745Z 22010KT 09/00 A2983 RMK A01 T00870001  RH  055%=      5-min Rain = 0
KARS 100750Z 22010KT 09/00 A2983 RMK A01 T00850000  RH  056%=      5-min Rain = 0
KARS 100755Z 22010KT 08/00 A2983 RMK A01 T00840000  RH  056%=      5-min Rain = 0
KARS 100800Z 22011KT 08/00 A2982 RMK A01 T00840001  RH  056%=      5-min Rain = 0
KARS 100805Z 22010KT 09/00 A2982 RMK A01 T00850000  RH  056%=      5-min Rain = 0
KARS 100810Z 22010KT 08/00 A2982 RMK A01 T00830000  RH  056%=      5-min Rain = 0
KARS 100815Z 22010KT 08/00 A2982 RMK A01 T008200-0  RH  057%=      5-min Rain = 0
KARS 100820Z 21010KT 08/M00 A2982 RMK A01 T00811001  RH  057%=      5-min Rain = 0
KARS 100825Z 22009KT 08/M00 A2982 RMK A01 T00801001  RH  057%=      5-min Rain = 0
KARS 100830Z 22010KT 08/M00 A2982 RMK A01 T00791001  RH  058%=      5-min Rain = 0
KARS 100835Z 22009KT 08/M00 A2982 RMK A01 T00781001  RH  058%=      5-min Rain = 0
KARS 100840Z 23009KT 08/M00 A2982 RMK A01 T00781001  RH  058%=      5-min Rain = 0
KARS 100845Z 22009KT 08/M00 A2982 RMK A01 T00781001  RH  058%=      5-min Rain = 0
KARS 100850Z 22009KT 08/M00 A2981 RMK A01 T00781001  RH  058%=      5-min Rain = 0
KARS 100855Z 23008KT 08/M00 A2981 RMK A01 T00781001  RH  058%=      5-min Rain = 0
KARS 100900Z 22008KT 08/M00 A2981 RMK A01 T00771001  RH  058%=      5-min Rain = 0
KARS 100905Z 23008KT 08/M00 A2981 RMK A01 T00761001  RH  059%=      5-min Rain = 0
KARS 100910Z 22008KT 08/M00 A2981 RMK A01 T00771001  RH  058%=      5-min Rain = 0
KARS 100915Z 23007KT 08/M00 A298 RMK A01 T00771001  RH  058%=      5-min Rain = 0
KARS 100920Z 23008KT 08/M00 A298 RMK A01 T00771001  RH  059%=      5-min Rain = 0
KARS 100925Z 23009KT 08/M00 A298 RMK A01 T00771001  RH  058%=      5-min Rain = 0
KARS 100930Z 22009KT 08/00 A298 RMK A01 T007700-0  RH  058%=      5-min Rain = 0
KARS 100935Z 22010KT 08/00 A298 RMK A01 T007700-0  RH  059%=      5-min Rain = 0
KARS 100940Z 22010KT 08/00 A298 RMK A01 T007600-0  RH  059%=      5-min Rain = 0
KARS 100945Z 22009KT 08/00 A298 RMK A01 T00760000  RH  059%=      5-min Rain = 0
KARS 100950Z 22009KT 08/00 A298 RMK A01 T00760000  RH  060%=      5-min Rain = 0
KARS 100955Z 22009KT 07/00 A298 RMK A01 T007400-0  RH  060%=      5-min Rain = 0
KARS 101000Z 22009KT 07/00 A298 RMK A01 T007200-0  RH  061%=      5-min Rain = 0
KARS 101005Z 22009KT 07/00 A2979 RMK A01 T00730001  RH  061%=      5-min Rain = 0
KARS 101010Z 22010KT 07/00 A2979 RMK A01 T00740001  RH  060%=      5-min Rain = 0
KARS 101015Z 22010KT 08/00 A2979 RMK A01 T00750001  RH  060%=      5-min Rain = 0
KARS 101020Z 22010KT 08/00 A2978 RMK A01 T00760002  RH  060%=      5-min Rain = 0
KARS 101025Z 22010KT 08/00 A2978 RMK A01 T00760002  RH  060%=      5-min Rain = 0
KARS 101030Z 22011KT 08/00 A2978 RMK A01 T00760002  RH  060%=      5-min Rain = 0
KARS 101035Z 22010KT 08/00 A2977 RMK A01 T00770002  RH  060%=      5-min Rain = 0
KARS 101040Z 22010KT 08/00 A2977 RMK A01 T00770002  RH  060%=      5-min Rain = 0
KARS 101045Z 22009KT 08/00 A2977 RMK A01 T00760002  RH  060%=      5-min Rain = 0
KARS 101050Z 21008KT 07/00 A2977 RMK A01 T00720002  RH  062%=      5-min Rain = 0
KARS 101055Z 21008KT 07/00 A2977 RMK A01 T006500-0  RH  064%=      5-min Rain = 0
KARS 101100Z 22010KT 06/00 A2977 RMK A01 T006200-0  RH  065%=      5-min Rain = 0
KARS 101105Z 22010KT 06/00 A2977 RMK A01 T006200-0  RH  065%=      5-min Rain = 0
KARS 101110Z 21011KT 06/00 A2977 RMK A01 T00620000  RH  066%=      5-min Rain = 0
KARS 101115Z 21011KT 06/00 A2977 RMK A01 T00620001  RH  066%=      5-min Rain = 0
KARS 101120Z 21011KT 06/00 A2977 RMK A01 T00620001  RH  066%=      5-min Rain = 0
KARS 101125Z 21011KT 06/00 A2977 RMK A01 T00620002  RH  066%=      5-min Rain = 0
KARS 101130Z 22011KT 07/00 A2977 RMK A01 T00660003  RH  065%=      5-min Rain = 0
KARS 101135Z 22011KT 07/00 A2978 RMK A01 T00680003  RH  064%=      5-min Rain = 0
KARS 101140Z 22010KT 07/00 A2977 RMK A01 T00670003  RH  064%=      5-min Rain = 0
KARS 101145Z 23010KT 07/00 A2978 RMK A01 T00680004  RH  064%=      5-min Rain = 0
KARS 101150Z 23011KT 07/00 A2978 RMK A01 T00690004  RH  064%=      5-min Rain = 0
KARS 101155Z 22012KT 07/01 A2978 RMK A01 T00720005  RH  063%=      5-min Rain = 0
KARS 101200Z 22012KT 07/01 A2978 RMK A01 T00740005  RH  062%=      5-min Rain = 0
KARS 101205Z 23012KT 08/01 A2978 RMK A01 T00750005  RH  062%=      5-min Rain = 0
KARS 101210Z 23011KT 07/01 A2978 RMK A01 T00740005  RH  062%=      5-min Rain = 0
KARS 101215Z 22010KT 07/01 A2978 RMK A01 T00730005  RH  063%=      5-min Rain = 0
KARS 101220Z 22010KT 07/01 A2978 RMK A01 T00720005  RH  063%=      5-min Rain = 0
KARS 101225Z 22009KT 07/01 A2977 RMK A01 T00710005  RH  064%=      5-min Rain = 0
KARS 101230Z 21010KT 07/01 A2977 RMK A01 T00710005  RH  064%=      5-min Rain = 0
KARS 101235Z 20011KT 07/01 A2977 RMK A01 T00710006  RH  064%=      5-min Rain = 0
KARS 101240Z 21010KT 07/01 A2977 RMK A01 T00710007  RH  065%=      5-min Rain = 0
KARS 101245Z 21009KT 07/01 A2977 RMK A01 T00730008  RH  065%=      5-min Rain = 0
KARS 101250Z 21010KT 08/01 A2976 RMK A01 T00750010  RH  064%=      5-min Rain = 0
KARS 101255Z 20010KT 08/01 A2976 RMK A01 T00760010  RH  064%=      5-min Rain = 0
KARS 101300Z 21009KT 08/01 A2976 RMK A01 T00750011  RH  064%=      5-min Rain = 0
KARS 101305Z 21010KT 08/01 A2977 RMK A01 T00750012  RH  065%=      5-min Rain = 0
KARS 101310Z 21010KT 08/01 A2976 RMK A01 T00780013  RH  064%=      5-min Rain = 0
KARS 101315Z 22009KT 08/01 A2975 RMK A01 T00800013  RH  064%=      5-min Rain = 0
KARS 101320Z 21009KT 08/01 A2975 RMK A01 T00810014  RH  064%=      5-min Rain = 0
KARS 101325Z 21011KT 08/02 A2975 RMK A01 T00830016  RH  063%=      5-min Rain = 0
KARS 101330Z 22012KT 09/02 A2975 RMK A01 T00870017  RH  062%=      5-min Rain = 0
KARS 101335Z 21012KT 09/02 A2975 RMK A01 T00900017  RH  061%=      5-min Rain = 0
KARS 101340Z 21011KT 09/02 A2975 RMK A01 T00910017  RH  061%=      5-min Rain = 0
KARS 101345Z 21011KT 09/02 A2975 RMK A01 T00910017  RH  061%=      5-min Rain = 0
KARS 101350Z 20012KT 09/02 A2975 RMK A01 T00900017  RH  061%=      5-min Rain = 0
KARS 101355Z 20011KT 09/02 A2974 RMK A01 T00890017  RH  061%=      5-min Rain = 0
KARS 101400Z 21011KT 09/02 A2974 RMK A01 T00890016  RH  061%=      5-min Rain = 0
KARS 101405Z 20011KT 09/02 A2974 RMK A01 T00870016  RH  062%=      5-min Rain = 0
KARS 101410Z 20012KT 09/02 A2974 RMK A01 T00850016  RH  063%=      5-min Rain = 0
KARS 101415Z 20012KT 09/02 A2973 RMK A01 T00850017  RH  063%=      5-min Rain = 0
KARS 101420Z 21011KT 09/02 A2973 RMK A01 T00850016  RH  063%=      5-min Rain = 0
KARS 101425Z 22010KT 09/02 A2974 RMK A01 T00850016  RH  063%=      5-min Rain = 0
KARS 101430Z 21010KT 09/02 A2974 RMK A01 T00850016  RH  063%=      5-min Rain = 0
KARS 101435Z 22010KT 09/02 A2974 RMK A01 T00850016  RH  063%=      5-min Rain = 0
KARS 101440Z 22010KT 09/02 A2974 RMK A01 T00850016  RH  063%=      5-min Rain = 0
KARS 101445Z 21009KT 08/02 A2974 RMK A01 T00840016  RH  063%=      5-min Rain = 0
KARS 101450Z 21009KT 08/02 A2974 RMK A01 T00830016  RH  064%=      5-min Rain = 0
KARS 101455Z 22010KT 08/02 A2974 RMK A01 T00830016  RH  064%=      5-min Rain = 0
KARS 101500Z 22010KT 08/02 A2974 RMK A01 T00820016  RH  064%=      5-min Rain = 0
KARS 101505Z 22009KT 08/02 A2974 RMK A01 T00810016  RH  065%=      5-min Rain = 0
KARS 101510Z 21008KT 08/02 A2974 RMK A01 T00790016  RH  065%=      5-min Rain = 0
KARS 101515Z 21009KT 08/02 A2974 RMK A01 T00790016  RH  066%=      5-min Rain = 0
KARS 101520Z 21008KT 08/02 A2974 RMK A01 T00840018  RH  064%=      5-min Rain = 0
KARS 101525Z 21010KT 09/02 A2974 RMK A01 T00900019  RH  062%=      5-min Rain = 0
KARS 101530Z 21011KT 09/02 A2974 RMK A01 T00940020  RH  061%=      5-min Rain = 0
KARS 101535Z 21011KT 10/02 A2974 RMK A01 T00980020  RH  059%=      5-min Rain = 0
KARS 101540Z 21012KT 10/02 A2974 RMK A01 T01010021  RH  058%=      5-min Rain = 0
KARS 101545Z 21012KT 11/02 A2974 RMK A01 T01050021  RH  057%=      5-min Rain = 0
KARS 101550Z 22012KT 11/02 A2974 RMK A01 T01080021  RH  056%=      5-min Rain = 0
KARS 101555Z 22013G19KT 11/02 A2973 RMK A01 T01110021  RH  055%=      5-min Rain = 0
KARS 101600Z 22015KT 11/02 A2973 RMK A01 T01110020  RH  054%=      5-min Rain = 0
KARS 101605Z 22015KT 11/02 A2973 RMK A01 T01140020  RH  053%=      5-min Rain = 0
KARS 101610Z 22014KT 12/02 A2973 RMK A01 T01170020  RH  052%=      5-min Rain = 0
KARS 101615Z 22015KT 12/02 A2974 RMK A01 T01200020  RH  051%=      5-min Rain = 0
KARS 101620Z 23016KT 12/02 A2974 RMK A01 T01220020  RH  051%=      5-min Rain = 0
KARS 101625Z 22014KT 13/02 A2974 RMK A01 T01260021  RH  049%=      5-min Rain = 0
KARS 101630Z 23016KT 13/02 A2974 RMK A01 T01290020  RH  048%=      5-min Rain = 0
KARS 101635Z 23016KT 13/02 A2974 RMK A01 T01320020  RH  047%=      5-min Rain = 0
KARS 101640Z 22013KT 14/02 A2974 RMK A01 T01360021  RH  046%=      5-min Rain = 0
KARS 101645Z 22015KT 14/02 A2974 RMK A01 T01420021  RH  044%=      5-min Rain = 0
KARS 101650Z 22016G21KT 15/02 A2974 RMK A01 T01460020  RH  043%=      5-min Rain = 0
KARS 101655Z 22015KT 15/02 A2973 RMK A01 T01510020  RH  042%=      5-min Rain = 0
KARS 101700Z 22015G20KT 16/02 A2973 RMK A01 T01560020  RH  040%=      5-min Rain = 0
KARS 101710Z 23017KT 16/02 A2972 RMK A01 T01640018  RH  038%=      5-min Rain = 0
KARS 101715Z 23015KT 17/02 A2972 RMK A01 T01680017  RH  037%=      5-min Rain = 0
KARS 101720Z 22015KT 17/02 A2972 RMK A01 T01720016  RH  036%=      5-min Rain = 0
KARS 101725Z 23015G20KT 18/02 A2971 RMK A01 T01760015  RH  034%=      5-min Rain = 0
KARS 101730Z 22014KT 18/01 A2971 RMK A01 T01820014  RH  033%=      5-min Rain = 0
KARS 101735Z 22015KT 18/01 A297 RMK A01 T01830013  RH  032%=      5-min Rain = 0
KARS 101740Z 23015KT 19/01 A297 RMK A01 T01860013  RH  032%=      5-min Rain = 0
KARS 101745Z 22014KT 19/01 A297 RMK A01 T01900013  RH  031%=      5-min Rain = 0
KARS 101750Z 22015KT 19/01 A297 RMK A01 T01930013  RH  030%=      5-min Rain = 0
KARS 101755Z 22015G21KT 19/01 A2969 RMK A01 T01940012  RH  030%=      5-min Rain = 0
KARS 101800Z 22015G21KT 20/01 A2969 RMK A01 T01980012  RH  029%=      5-min Rain = 0
KARS 101805Z 22016G21KT 20/01 A2968 RMK A01 T01980011  RH  029%=      5-min Rain = 0
KARS 101810Z 22017KT 20/01 A2968 RMK A01 T02000011  RH  029%=      5-min Rain = 0
KARS 101815Z 23017G23KT 20/01 A2967 RMK A01 T01990010  RH  029%=      5-min Rain = 0
KARS 101820Z 23017G23KT 20/01 A2966 RMK A01 T02030011  RH  028%=      5-min Rain = 0
KARS 101825Z 22019G24KT 20/01 A2966 RMK A01 T02030011  RH  028%=      5-min Rain = 0
KARS 101830Z 23016G21KT 21/01 A2966 RMK A01 T02050011  RH  028%=      5-min Rain = 0
KARS 101835Z 22016G21KT 21/01 A2965 RMK A01 T02080012  RH  028%=      5-min Rain = 0
KARS 101840Z 22016KT 21/01 A2965 RMK A01 T02060013  RH  028%=      5-min Rain = 0
KARS 101845Z 22016KT 21/01 A2964 RMK A01 T02100012  RH  027%=      5-min Rain = 0
KARS 101850Z 22014KT 21/01 A2963 RMK A01 T02120011  RH  027%=      5-min Rain = 0
KARS 101855Z 22015G21KT 22/01 A2963 RMK A01 T02160011  RH  026%=      5-min Rain = 0
KARS 101900Z 21017G22KT 22/01 A2962 RMK A01 T02160011  RH  026%=      5-min Rain = 0
KARS 101905Z 20016G21KT 22/01 A2962 RMK A01 T02170013  RH  026%=      5-min Rain = 0
KARS 101910Z 20015KT 22/01 A2961 RMK A01 T02180014  RH  026%=      5-min Rain = 0
KARS 101915Z 20018G24KT 22/01 A2961 RMK A01 T02190012  RH  026%=      5-min Rain = 0
KARS 101920Z 22015G21KT 22/01 A296 RMK A01 T02220010  RH  025%=      5-min Rain = 0
KARS 101925Z 24018G25KT 23/M00 A296 RMK A01 T02291002  RH  022%=      5-min Rain = 0
KARS 101930Z 25020G26KT 23/M00 A2959 RMK A01 T02301003  RH  022%=      5-min Rain = 0
KARS 101935Z 24020G29KT 23/M00 A2958 RMK A01 T02311003  RH  021%=      5-min Rain = 0
KARS 101940Z 24020G28KT 23/M00 A2958 RMK A01 T02321004  RH  021%=      5-min Rain = 0
KARS 101945Z 25018KT 23/M00 A2958 RMK A01 T02321004  RH  021%=      5-min Rain = 0
KARS 101950Z 24021G31KT 23/M00 A2957 RMK A01 T02331003  RH  021%=      5-min Rain = 0
KARS 101955Z 25019G29KT 23/M00 A2957 RMK A01 T02321002  RH  021%=      5-min Rain = 0
KARS 102000Z 24023G30KT 23/M00 A2957 RMK A01 T02321004  RH  021%=      5-min Rain = 0
KARS 102005Z 24023G32KT 23/M01 A2957 RMK A01 T02301005  RH  021%=      5-min Rain = 0
KARS 102010Z 24022G31KT 23/M01 A2956 RMK A01 T02301005  RH  021%=      5-min Rain = 0
KARS 102015Z 24023G31KT 23/M01 A2956 RMK A01 T02301010  RH  020%=      5-min Rain = 0
KARS 102020Z 24027G34KT 23/M01 A2956 RMK A01 T02301012  RH  020%=      5-min Rain = 0
KARS 102025Z 24025G31KT 23/M01 A2956 RMK A01 T02291010  RH  021%=      5-min Rain = 0
KARS 102030Z 24026G34KT 23/M01 A2955 RMK A01 T02261008  RH  021%=      5-min Rain = 0
KARS 102035Z 24024G34KT 23/M01 A2955 RMK A01 T02251007  RH  021%=      5-min Rain = 0
KARS 102040Z 24025G31KT 22/M01 A2955 RMK A01 T02241010  RH  021%=      5-min Rain = 0
KARS 102045Z 24025G32KT 22/M01 A2955 RMK A01 T02211013  RH  021%=      5-min Rain = 0
KARS 102050Z 24021G28KT 22/M01 A2955 RMK A01 T02211012  RH  021%=      5-min Rain = 0
KARS 102055Z 24027G35KT 22/M02 A2955 RMK A01 T02211024  RH  019%=      5-min Rain = 0
KARS 102100Z 24027G37KT 22/M04 A2955 RMK A01 T02201038  RH  018%=      5-min Rain = 0
KARS 102105Z 23028G40KT 22/M03 A2955 RMK A01 T02191032  RH  019%=      5-min Rain = 0
KARS 102110Z 24027G34KT 22/M03 A2955 RMK A01 T02181028  RH  019%=      5-min Rain = 0
KARS 102115Z 23028G36KT 22/M03 A2955 RMK A01 T02161029  RH  019%=      5-min Rain = 0
KARS 102120Z 23027G35KT 22/M02 A2955 RMK A01 T02171020  RH  021%=      5-min Rain = 0
KARS 102125Z 23026G35KT 21/M02 A2955 RMK A01 T02141018  RH  021%=      5-min Rain = 0
KARS 102130Z 23028G35KT 22/M02 A2955 RMK A01 T02171017  RH  021%=      5-min Rain = 0
KARS 102135Z 24026G34KT 22/M02 A2955 RMK A01 T02161017  RH  021%=      5-min Rain = 0
KARS 102140Z 24027G34KT 22/M02 A2955 RMK A01 T02151019  RH  021%=      5-min Rain = 0
KARS 102145Z 25027G34KT 21/M02 A2955 RMK A01 T02121015  RH  022%=      5-min Rain = 0
KARS 102150Z 24026G31KT 21/M01 A2955 RMK A01 T02111014  RH  022%=      5-min Rain = 0
KARS 102155Z 24028G35KT 20/M01 A2955 RMK A01 T02031013  RH  024%=      5-min Rain = 0
KARS 102200Z 25030G40KT 20/M00 A2955 RMK A01 T01971002  RH  027%=      5-min Rain = 0
KARS 102205Z 27030G40KT 19/02 A2956 RMK A01 T01860015  RH  032%=      5-min Rain = 0
KARS 102210Z 26027G39KT 18/02 A2956 RMK A01 T01760020  RH  036%=      5-min Rain = 0
KARS 102215Z 27026G34KT 18/02 A2956 RMK A01 T01770020  RH  036%=      5-min Rain = 0
KARS 102220Z 27024G32KT 18/03 A2957 RMK A01 T01750026  RH  037%=      5-min Rain = 0
KARS 102225Z 27025G30KT 18/03 A2957 RMK A01 T01770028  RH  038%=      5-min Rain = 0
KARS 102230Z 27024G30KT 18/03 A2957 RMK A01 T01780028  RH  037%=      5-min Rain = 0
KARS 102235Z 27023G31KT 18/03 A2957 RMK A01 T01780029  RH  038%=      5-min Rain = 0
KARS 102240Z 27024G31KT 18/03 A2957 RMK A01 T01750025  RH  037%=      5-min Rain = 0
KARS 102245Z 27023G31KT 17/02 A2958 RMK A01 T01730023  RH  037%=      5-min Rain = 0
KARS 102250Z 27025G30KT 17/02 A2957 RMK A01 T01710022  RH  037%=      5-min Rain = 0
KARS 102255Z 26024G31KT 17/02 A2958 RMK A01 T01690023  RH  038%=      5-min Rain = 0
KARS 102300Z 26024G30KT 17/02 A2958 RMK A01 T01670021  RH  038%=      5-min Rain = 0
KARS 102305Z 26022G29KT 16/02 A2958 RMK A01 T01630021  RH  039%=      5-min Rain = 0
KARS 102310Z 27021G30KT 16/02 A2958 RMK A01 T01600021  RH  040%=      5-min Rain = 0
KARS 102315Z 27023G31KT 16/02 A2958 RMK A01 T01580017  RH  039%=      5-min Rain = 0
KARS 102320Z 27020G28KT 16/01 A2958 RMK A01 T01550009  RH  038%=      5-min Rain = 0
KARS 102325Z 27021G28KT 15/01 A2958 RMK A01 T01520007  RH  038%=      5-min Rain = 0
KARS 102330Z 27020G26KT 15/01 A2958 RMK A01 T01490008  RH  039%=      5-min Rain = 0
KARS 102335Z 26019G25KT 15/01 A2958 RMK A01 T01480009  RH  039%=      5-min Rain = 0
KARS 102340Z 26019G24KT 15/01 A2958 RMK A01 T01460011  RH  040%=      5-min Rain = 0
KARS 102345Z 26019G24KT 14/02 A2958 RMK A01 T01430015  RH  043%=      5-min Rain = 0
KARS 102350Z 26018G23KT 14/02 A2957 RMK A01 T01390018  RH  044%=      5-min Rain = 0
KARS 102355Z 25017G26KT 14/02 A2958 RMK A01 T01360019  RH  046%=      5-min Rain = 0
KARS 110000Z 25019KT 13/02 A2958 RMK A01 T01340018  RH  046%=      5-min Rain = 0
KARS 110005Z 25017G23KT 13/02 A2957 RMK A01 T01320017  RH  046%=      5-min Rain = 0
KARS 110010Z 25015KT 13/01 A2957 RMK A01 T01310014  RH  046%=      5-min Rain = 0
KARS 110015Z 25015G20KT 13/01 A2957 RMK A01 T01280011  RH  045%=      5-min Rain = 0
KARS 110020Z 24014G21KT 13/01 A2957 RMK A01 T01270009  RH  045%=      5-min Rain = 0
KARS 110025Z 24014KT 13/01 A2957 RMK A01 T01260009  RH  045%=      5-min Rain = 0
KARS 110030Z 24014G19KT 13/01 A2958 RMK A01 T01250009  RH  046%=      5-min Rain = 0
KARS 110035Z 24015KT 12/01 A2959 RMK A01 T01240009  RH  046%=      5-min Rain = 0
KARS 110040Z 24016KT 12/01 A2959 RMK A01 T01240008  RH  046%=      5-min Rain = 0
KARS 110045Z 24015G20KT 12/01 A2958 RMK A01 T01230009  RH  046%=      5-min Rain = 0
KARS 110050Z 24015G21KT 12/01 A2958 RMK A01 T01220011  RH  047%=      5-min Rain = 0
KARS 110055Z 23016G21KT 12/01 A2959 RMK A01 T01220013  RH  048%=      5-min Rain = 0
KARS 110100Z 23017KT 12/02 A2959 RMK A01 T01220015  RH  049%=      5-min Rain = 0
KARS 110105Z 23016G21KT 12/02 A2959 RMK A01 T01220017  RH  049%=      5-min Rain = 0
KARS 110110Z 22016G22KT 12/02 A296 RMK A01 T01220018  RH  050%=      5-min Rain = 0
KARS 110115Z 22016G22KT 12/02 A296 RMK A01 T01210019  RH  050%=      5-min Rain = 0
KARS 110120Z 22019G25KT 12/02 A296 RMK A01 T01220015  RH  049%=      5-min Rain = 0
KARS 110125Z 22021G26KT 12/01 A296 RMK A01 T01230008  RH  046%=      5-min Rain = 0
KARS 110130Z 22020G26KT 12/01 A296 RMK A01 T01220008  RH  046%=      5-min Rain = 0
KARS 110135Z 23019G24KT 12/01 A2959 RMK A01 T01200010  RH  047%=      5-min Rain = 0
KARS 110140Z 23019G25KT 12/01 A2959 RMK A01 T01190011  RH  048%=      5-min Rain = 0
KARS 110145Z 23018KT 12/01 A2959 RMK A01 T01170013  RH  049%=      5-min Rain = 0
KARS 110150Z 23017G23KT 12/01 A2959 RMK A01 T01160014  RH  050%=      5-min Rain = 0
KARS 110155Z 22017KT 11/01 A2959 RMK A01 T01140014  RH  051%=      5-min Rain = 0
KARS 110200Z 23018G25KT 11/02 A2958 RMK A01 T01130015  RH  052%=      5-min Rain = 0
KARS 110205Z 23017G25KT 11/02 A2958 RMK A01 T01130017  RH  052%=      5-min Rain = 0
KARS 110210Z 23017G22KT 11/02 A2958 RMK A01 T01120017  RH  053%=      5-min Rain = 0
KARS 110215Z 24018G25KT 11/02 A2958 RMK A01 T01110018  RH  053%=      5-min Rain = 0
KARS 110220Z 24016G22KT 11/02 A2958 RMK A01 T01120018  RH  053%=      5-min Rain = 0
KARS 110225Z 24017KT 11/02 A2958 RMK A01 T01110019  RH  054%=      5-min Rain = 0
KARS 110230Z 23019G24KT 11/02 A2958 RMK A01 T01120019  RH  054%=      5-min Rain = 0
KARS 110235Z 24018G24KT 11/02 A2958 RMK A01 T01120020  RH  054%=      5-min Rain = 0
KARS 110240Z 24020G26KT 11/02 A2957 RMK A01 T01120021  RH  054%=      5-min Rain = 0
KARS 110245Z 24019G25KT 11/02 A2957 RMK A01 T01130021  RH  054%=      5-min Rain = 0
KARS 110250Z 24019G26KT 11/02 A2957 RMK A01 T01130021  RH  054%=      5-min Rain = 0
KARS 110255Z 24020G26KT 11/02 A2956 RMK A01 T01120020  RH  054%=      5-min Rain = 0
KARS 110300Z 24019G26KT 11/02 A2956 RMK A01 T01110019  RH  054%=      5-min Rain = 0
KARS 110305Z 24018G24KT 11/02 A2956 RMK A01 T01100018  RH  054%=      5-min Rain = 0
KARS 110310Z 24019G28KT 11/02 A2956 RMK A01 T01100016  RH  053%=      5-min Rain = 0
KARS 110315Z 24019G24KT 11/02 A2956 RMK A01 T01100015  RH  053%=      5-min Rain = 0
KARS 110320Z 24019G24KT 11/02 A2956 RMK A01 T01080015  RH  053%=      5-min Rain = 0
KARS 110325Z 24019G25KT 11/01 A2956 RMK A01 T01070014  RH  053%=      5-min Rain = 0
KARS 110330Z 24019G27KT 11/01 A2956 RMK A01 T01060012  RH  053%=      5-min Rain = 0
KARS 110335Z 24019G25KT 11/01 A2956 RMK A01 T01050011  RH  053%=      5-min Rain = 0
KARS 110340Z 24019G24KT 11/01 A2956 RMK A01 T01050009  RH  052%=      5-min Rain = 0
KARS 110345Z 24018G23KT 10/01 A2956 RMK A01 T01040008  RH  052%=      5-min Rain = 0
KARS 110350Z 25019G24KT 10/01 A2956 RMK A01 T01040005  RH  051%=      5-min Rain = 0
KARS 110355Z 25019G26KT 10/00 A2956 RMK A01 T01040002  RH  050%=      5-min Rain = 0
KARS 110400Z 25018G24KT 10/00 A2956 RMK A01 T01040000  RH  049%=      5-min Rain = 0
KARS 110405Z 25019G24KT 10/M00 A2956 RMK A01 T01031002  RH  049%=      5-min Rain = 0
KARS 110410Z 25018KT 10/M00 A2956 RMK A01 T01021003  RH  049%=      5-min Rain = 0
KARS 110415Z 24017G22KT 10/M00 A2956 RMK A01 T00991004  RH  049%=      5-min Rain = 0
KARS 110420Z 24017G23KT 10/M00 A2956 RMK A01 T00971004  RH  050%=      5-min Rain = 0
KARS 110425Z 24018G23KT 10/M00 A2956 RMK A01 T00971003  RH  050%=      5-min Rain = 0
KARS 110430Z 24016G21KT 10/M00 A2956 RMK A01 T00951002  RH  051%=      5-min Rain = 0
KARS 110435Z 23017KT 10/M00 A2956 RMK A01 T00951002  RH  052%=      5-min Rain = 0
KARS 110440Z 23017KT 09/M00 A2956 RMK A01 T00941001  RH  052%=      5-min Rain = 0
KARS 110445Z 23017KT 09/M00 A2957 RMK A01 T00921001  RH  053%=      5-min Rain = 0
KARS 110450Z 23016G21KT 09/00 A2957 RMK A01 T009000-0  RH  054%=      5-min Rain = 0
KARS 110455Z 22016KT 09/00 A2956 RMK A01 T00890000  RH  054%=      5-min Rain = 0
KARS 110500Z 22015KT 08/00 A2957 RMK A01 T00840001  RH  057%=      5-min Rain = 0
KARS 110505Z 22015KT 08/00 A2956 RMK A01 T00790002  RH  059%=      5-min Rain = 0
KARS 110510Z 22017KT 08/00 A2956 RMK A01 T00780004  RH  060%=      5-min Rain = 0
KARS 110515Z 22017KT 08/01 A2956 RMK A01 T00780005  RH  061%=      5-min Rain = 0
KARS 110520Z 22016G21KT 08/01 A2956 RMK A01 T00770006  RH  062%=      5-min Rain = 0
KARS 110525Z 23016G21KT 08/01 A2956 RMK A01 T00770007  RH  062%=      5-min Rain = 0
KARS 110530Z 23017KT 08/01 A2956 RMK A01 T00780007  RH  062%=      5-min Rain = 0
KARS 110535Z 22018G24KT 08/01 A2956 RMK A01 T00790007  RH  061%=      5-min Rain = 0
KARS 110540Z 22018G23KT 08/01 A2956 RMK A01 T00800006  RH  061%=      5-min Rain = 0
KARS 110545Z 22018G24KT 08/01 A2956 RMK A01 T00800006  RH  060%=      5-min Rain = 0
KARS 110550Z 22018G24KT 08/01 A2956 RMK A01 T00800005  RH  060%=      5-min Rain = 0
KARS 110555Z 23016KT 08/01 A2956 RMK A01 T00780005  RH  061%=      5-min Rain = 0

Page generated in 0.0094 seconds.